N312RK -KPWK
Flight info
| Callsign | N312RK |
|---|---|
| Flight time | N/A |
| Altitude | VFR |
| Route | VFR N |
| Aircraft | C25C/M-VGDW/C |
Departure
| Time | N/A |
|---|---|
| Airport | - |
Arrival
| Time | 2026-04-26 20:28 |
|---|---|
| Airport | Chicago Executive Airport (KPWK) |
| Time | Latitude | Longitude | Altitude | Speed | Heading |
|---|---|---|---|---|---|
| 2026-04-26 19:54 | 39.60473 | -86.27315 | 16494 ft | 378 kts | 336° |
| 2026-04-26 19:54 | 39.62908 | -86.28618 | 16500 ft | 379 kts | 336° |
| 2026-04-26 19:54 | 39.65352 | -86.29927 | 16494 ft | 381 kts | 336° |
| 2026-04-26 19:55 | 39.67821 | -86.31249 | 16505 ft | 387 kts | 336° |
| 2026-04-26 19:55 | 39.70330 | -86.32593 | 16505 ft | 393 kts | 336° |
| 2026-04-26 19:55 | 39.72876 | -86.33958 | 16503 ft | 397 kts | 336° |
| 2026-04-26 19:55 | 39.75440 | -86.35329 | 16505 ft | 400 kts | 336° |
| 2026-04-26 19:56 | 39.78027 | -86.36714 | 16517 ft | 403 kts | 336° |
| 2026-04-26 19:56 | 39.80596 | -86.38088 | 16515 ft | 396 kts | 336° |
| 2026-04-26 19:56 | 39.83122 | -86.39431 | 16523 ft | 389 kts | 336° |
| 2026-04-26 19:56 | 39.85618 | -86.40761 | 16506 ft | 386 kts | 336° |
| 2026-04-26 19:57 | 39.88104 | -86.42080 | 16503 ft | 385 kts | 336° |
| 2026-04-26 19:57 | 39.90588 | -86.43366 | 16497 ft | 384 kts | 337° |
| 2026-04-26 19:57 | 39.93047 | -86.44621 | 16498 ft | 385 kts | 337° |
| 2026-04-26 19:57 | 39.95553 | -86.45888 | 16500 ft | 386 kts | 337° |
| 2026-04-26 19:58 | 39.98062 | -86.47152 | 16501 ft | 387 kts | 337° |
| 2026-04-26 19:58 | 40.00576 | -86.48420 | 16497 ft | 388 kts | 337° |
| 2026-04-26 19:58 | 40.03095 | -86.49686 | 16498 ft | 388 kts | 337° |
| 2026-04-26 19:58 | 40.05613 | -86.50952 | 16500 ft | 388 kts | 337° |
| 2026-04-26 19:59 | 40.08137 | -86.52214 | 16490 ft | 389 kts | 337° |
| 2026-04-26 19:59 | 40.10669 | -86.53483 | 16491 ft | 389 kts | 337° |
| 2026-04-26 19:59 | 40.13200 | -86.54748 | 16488 ft | 390 kts | 337° |
| 2026-04-26 19:59 | 40.15736 | -86.56016 | 16489 ft | 390 kts | 337° |
| 2026-04-26 20:00 | 40.18272 | -86.57280 | 16492 ft | 390 kts | 337° |
| 2026-04-26 20:00 | 40.20775 | -86.58529 | 16487 ft | 390 kts | 337° |
| 2026-04-26 20:00 | 40.23344 | -86.59810 | 16491 ft | 390 kts | 337° |
| 2026-04-26 20:00 | 40.25849 | -86.61057 | 16493 ft | 390 kts | 337° |
| 2026-04-26 20:01 | 40.28395 | -86.62318 | 16492 ft | 390 kts | 337° |
| 2026-04-26 20:01 | 40.30933 | -86.63580 | 16491 ft | 390 kts | 337° |
| 2026-04-26 20:01 | 40.33480 | -86.64842 | 16488 ft | 390 kts | 337° |
| 2026-04-26 20:01 | 40.36026 | -86.66101 | 16494 ft | 390 kts | 337° |
| 2026-04-26 20:02 | 40.38567 | -86.67358 | 16496 ft | 390 kts | 337° |
| 2026-04-26 20:02 | 40.41108 | -86.68610 | 16495 ft | 390 kts | 337° |
| 2026-04-26 20:02 | 40.43616 | -86.69845 | 16492 ft | 390 kts | 337° |
| 2026-04-26 20:02 | 40.45335 | -86.70691 | 16491 ft | 390 kts | 337° |
| 2026-04-26 20:03 | 40.48697 | -86.72345 | 16496 ft | 390 kts | 337° |
| 2026-04-26 20:03 | 40.51237 | -86.73593 | 16496 ft | 389 kts | 337° |
| 2026-04-26 20:03 | 40.53777 | -86.74838 | 16496 ft | 389 kts | 337° |
| 2026-04-26 20:03 | 40.56321 | -86.76079 | 16498 ft | 389 kts | 337° |
| 2026-04-26 20:04 | 40.58858 | -86.77320 | 16500 ft | 389 kts | 337° |
| 2026-04-26 20:04 | 40.61407 | -86.78564 | 16502 ft | 389 kts | 337° |
| 2026-04-26 20:04 | 40.63944 | -86.79799 | 16500 ft | 389 kts | 337° |
| 2026-04-26 20:04 | 40.66486 | -86.81038 | 16503 ft | 389 kts | 337° |
| 2026-04-26 20:05 | 40.69030 | -86.82274 | 16504 ft | 389 kts | 337° |
| 2026-04-26 20:05 | 40.71537 | -86.83495 | 16508 ft | 389 kts | 337° |
| 2026-04-26 20:05 | 40.74088 | -86.84729 | 16517 ft | 389 kts | 337° |
| 2026-04-26 20:05 | 40.76625 | -86.85962 | 16519 ft | 389 kts | 337° |
| 2026-04-26 20:06 | 40.79164 | -86.87192 | 16523 ft | 389 kts | 337° |
| 2026-04-26 20:06 | 40.81707 | -86.88424 | 16522 ft | 389 kts | 337° |
| 2026-04-26 20:06 | 40.84249 | -86.89655 | 16521 ft | 389 kts | 337° |
| 2026-04-26 20:06 | 40.86790 | -86.90880 | 16521 ft | 389 kts | 337° |
| 2026-04-26 20:07 | 40.89332 | -86.92110 | 16520 ft | 389 kts | 337° |
| 2026-04-26 20:07 | 40.91874 | -86.93335 | 16521 ft | 389 kts | 337° |
| 2026-04-26 20:07 | 40.94419 | -86.94562 | 16526 ft | 389 kts | 338° |
| 2026-04-26 20:07 | 40.96931 | -86.95775 | 16516 ft | 389 kts | 337° |
| 2026-04-26 20:08 | 40.99528 | -86.97025 | 16260 ft | 396 kts | 338° |
| 2026-04-26 20:08 | 41.02089 | -86.98266 | 15915 ft | 391 kts | 338° |
| 2026-04-26 20:08 | 41.04618 | -86.99481 | 15563 ft | 374 kts | 337° |
| 2026-04-26 20:08 | 41.06997 | -87.00624 | 15222 ft | 363 kts | 338° |
| 2026-04-26 20:09 | 41.09347 | -87.01747 | 14879 ft | 356 kts | 337° |
| 2026-04-26 20:09 | 41.11663 | -87.02853 | 14533 ft | 351 kts | 338° |
| 2026-04-26 20:09 | 41.13948 | -87.03942 | 14200 ft | 347 kts | 337° |
| 2026-04-26 20:09 | 41.16206 | -87.05020 | 13865 ft | 344 kts | 338° |
| 2026-04-26 20:10 | 41.18457 | -87.06100 | 13494 ft | 342 kts | 337° |
| 2026-04-26 20:10 | 41.20688 | -87.07167 | 13164 ft | 340 kts | 337° |
| 2026-04-26 20:10 | 41.22889 | -87.08251 | 12902 ft | 335 kts | 335° |
| 2026-04-26 20:10 | 41.25042 | -87.09407 | 12638 ft | 332 kts | 335° |
| 2026-04-26 20:11 | 41.27173 | -87.10572 | 12386 ft | 330 kts | 334° |
| 2026-04-26 20:11 | 41.29310 | -87.11750 | 12138 ft | 335 kts | 334° |
| 2026-04-26 20:11 | 41.30738 | -87.12540 | 11968 ft | 334 kts | 334° |
| 2026-04-26 20:12 | 41.35005 | -87.14900 | 11472 ft | 331 kts | 334° |
| 2026-04-26 20:12 | 41.37136 | -87.16073 | 11227 ft | 330 kts | 334° |
| 2026-04-26 20:12 | 41.39253 | -87.17248 | 10986 ft | 329 kts | 334° |
| 2026-04-26 20:12 | 41.41372 | -87.18418 | 10741 ft | 329 kts | 334° |
| 2026-04-26 20:13 | 41.43479 | -87.19590 | 10501 ft | 328 kts | 334° |
| 2026-04-26 20:13 | 41.45511 | -87.20721 | 10276 ft | 328 kts | 334° |
| 2026-04-26 20:13 | 41.47618 | -87.21895 | 10037 ft | 328 kts | 335° |
| 2026-04-26 20:13 | 41.49719 | -87.23074 | 9786 ft | 327 kts | 334° |
| 2026-04-26 20:14 | 41.51815 | -87.24252 | 9523 ft | 327 kts | 334° |
| 2026-04-26 20:14 | 41.53880 | -87.25422 | 9271 ft | 326 kts | 335° |
| 2026-04-26 20:14 | 41.55996 | -87.26627 | 9016 ft | 326 kts | 334° |
| 2026-04-26 20:14 | 41.58049 | -87.27811 | 8768 ft | 325 kts | 335° |
| 2026-04-26 20:15 | 41.60132 | -87.29008 | 8509 ft | 325 kts | 335° |
| 2026-04-26 20:15 | 41.62189 | -87.30259 | 8261 ft | 324 kts | 330° |
| 2026-04-26 20:15 | 41.64137 | -87.31769 | 7968 ft | 324 kts | 327° |
| 2026-04-26 20:15 | 41.65966 | -87.33267 | 7627 ft | 286 kts | 326° |
| 2026-04-26 20:16 | 41.67653 | -87.34678 | 7308 ft | 287 kts | 326° |
| 2026-04-26 20:16 | 41.69345 | -87.36109 | 6920 ft | 290 kts | 326° |
| 2026-04-26 20:16 | 41.71086 | -87.37503 | 6511 ft | 293 kts | 328° |
| 2026-04-26 20:16 | 41.72854 | -87.38881 | 6088 ft | 294 kts | 329° |
| 2026-04-26 20:17 | 41.74633 | -87.40263 | 5670 ft | 295 kts | 329° |
| 2026-04-26 20:17 | 41.76406 | -87.41657 | 5251 ft | 295 kts | 329° |
| 2026-04-26 20:17 | 41.78173 | -87.43053 | 4786 ft | 290 kts | 329° |
| 2026-04-26 20:17 | 41.79832 | -87.44376 | 4264 ft | 272 kts | 329° |
| 2026-04-26 20:18 | 41.81418 | -87.45654 | 3733 ft | 260 kts | 329° |
| 2026-04-26 20:18 | 41.82946 | -87.46894 | 3208 ft | 255 kts | 330° |
| 2026-04-26 20:18 | 41.84470 | -87.48038 | 2855 ft | 243 kts | 333° |
| 2026-04-26 20:18 | 41.85947 | -87.49078 | 2821 ft | 246 kts | 333° |
| 2026-04-26 20:19 | 41.87501 | -87.50163 | 2814 ft | 255 kts | 334° |
| 2026-04-26 20:19 | 41.89083 | -87.51266 | 2815 ft | 253 kts | 334° |
| 2026-04-26 20:19 | 41.90604 | -87.52321 | 2810 ft | 239 kts | 334° |
| 2026-04-26 20:19 | 41.92046 | -87.53333 | 2806 ft | 229 kts | 334° |
| 2026-04-26 20:20 | 41.93428 | -87.54340 | 2796 ft | 225 kts | 328° |
| 2026-04-26 20:20 | 41.94396 | -87.55943 | 2796 ft | 220 kts | 295° |
| 2026-04-26 20:20 | 41.94934 | -87.57849 | 2862 ft | 217 kts | 288° |
| 2026-04-26 20:20 | 41.95448 | -87.59734 | 2899 ft | 220 kts | 288° |
| 2026-04-26 20:21 | 41.96153 | -87.61515 | 2805 ft | 218 kts | 308° |
| 2026-04-26 20:21 | 41.97341 | -87.62787 | 2550 ft | 217 kts | 333° |
| 2026-04-26 20:21 | 41.98649 | -87.63646 | 2456 ft | 196 kts | 338° |
| 2026-04-26 20:21 | 41.99836 | -87.64373 | 2258 ft | 178 kts | 338° |
| 2026-04-26 20:22 | 42.00939 | -87.65047 | 2127 ft | 165 kts | 340° |
| 2026-04-26 20:22 | 42.01973 | -87.65629 | 2022 ft | 158 kts | 341° |
| 2026-04-26 20:22 | 42.02976 | -87.66188 | 1944 ft | 153 kts | 341° |
| 2026-04-26 20:22 | 42.03950 | -87.66724 | 1865 ft | 152 kts | 339° |
| 2026-04-26 20:23 | 42.04800 | -87.67581 | 1791 ft | 153 kts | 314° |
| 2026-04-26 20:23 | 42.05196 | -87.68901 | 1712 ft | 155 kts | 273° |
| 2026-04-26 20:23 | 42.05223 | -87.70303 | 1707 ft | 149 kts | 268° |
| 2026-04-26 20:23 | 42.05193 | -87.71658 | 1824 ft | 143 kts | 266° |
| 2026-04-26 20:24 | 42.05153 | -87.73030 | 1882 ft | 150 kts | 266° |
| 2026-04-26 20:24 | 42.05146 | -87.74440 | 2003 ft | 152 kts | 267° |
| 2026-04-26 20:24 | 42.05139 | -87.75856 | 2124 ft | 151 kts | 267° |
| 2026-04-26 20:24 | 42.05136 | -87.77303 | 2181 ft | 158 kts | 268° |
| 2026-04-26 20:25 | 42.05142 | -87.78784 | 2209 ft | 163 kts | 270° |
| 2026-04-26 20:25 | 42.05157 | -87.79825 | 2240 ft | 164 kts | 270° |
| 2026-04-26 20:25 | 42.05188 | -87.81858 | 2311 ft | 164 kts | 274° |
| 2026-04-26 20:25 | 42.05441 | -87.83319 | 2400 ft | 162 kts | 290° |
| 2026-04-26 20:26 | 42.05819 | -87.84795 | 2314 ft | 170 kts | 288° |
| 2026-04-26 20:26 | 42.06213 | -87.86295 | 2241 ft | 173 kts | 295° |
| 2026-04-26 20:26 | 42.06794 | -87.87537 | 2155 ft | 148 kts | 317° |
| 2026-04-26 20:26 | 42.07623 | -87.88313 | 1768 ft | 143 kts | 341° |
| 2026-04-26 20:27 | 42.08529 | -87.88821 | 1394 ft | 138 kts | 349° |
| 2026-04-26 20:27 | 42.09424 | -87.89215 | 1143 ft | 132 kts | 347° |
| 2026-04-26 20:27 | 42.10228 | -87.89617 | 892 ft | 117 kts | 342° |
| 2026-04-26 20:27 | 42.10951 | -87.89998 | 678 ft | 107 kts | 343° |
| 2026-04-26 20:28 | 42.11577 | -87.90292 | 646 ft | 77 kts | 349° |
| 2026-04-26 20:28 | 42.11897 | -87.90463 | 643 ft | 32 kts | 343° |
| 2026-04-26 20:28 | 42.11987 | -87.90421 | 644 ft | 11 kts | 76° |
| 2026-04-26 20:28 | 42.11909 | -87.90334 | 645 ft | 28 kts | 158° |
| 2026-04-26 20:29 | 42.11751 | -87.90249 | 643 ft | 23 kts | 157° |
| 2026-04-26 20:29 | 42.11737 | -87.90082 | 644 ft | 22 kts | 68° |
| 2026-04-26 20:29 | 42.11753 | -87.89870 | 645 ft | 23 kts | 91° |
| 2026-04-26 20:29 | 42.11738 | -87.89686 | 645 ft | 14 kts | 117° |
| 2026-04-26 20:30 | 42.11743 | -87.89655 | 645 ft | 1 kts | 7° |
| 2026-04-26 20:30 | 42.11751 | -87.89674 | 645 ft | 0 kts | 274° |